Terminal Aerodrome Forecast
Issued by NWS

Home | Current Version | Previous Version | Text Only | Print | Product List | Glossary Off
Versions: 1 2 3 4 5 6 7 8 9 10 11 12 13 14 15 16 17 18 19 20 21 22

000
FTUS43 KIWX 220416 AAA
TAFSBN
TAF AMD
KSBN 220416Z 2204/2224 28012G22KT 6SM -SHRA VCTS BKN040CB OVC250
     FM220600 21008KT 6SM -SHRA BKN030
     FM220800 22005KT 6SM HZ SCT080 BKN150
     FM221600 23010KT P6SM VCTS BKN040CB=

USA.gov is the U.S. government's official web portal to all federal, state and local government web resources and services.